createdAt,value
2022-09-18T00:01:43.126Z,70.13
2022-09-18T00:06:41.984Z,70.18
2022-09-18T00:11:37.283Z,70.42
2022-09-18T00:16:30.722Z,69.97
2022-09-18T00:21:26.986Z,70.17
2022-09-18T00:26:20.410Z,69.88
2022-09-18T00:31:15.971Z,69.73
2022-09-18T00:36:11.268Z,68.87
2022-09-18T00:41:08.678Z,69.76
2022-09-18T00:46:05.860Z,70.85
2022-09-18T00:51:01.125Z,71.65
2022-09-18T00:55:54.387Z,72.05
2022-09-18T01:00:49.194Z,73.00
2022-09-18T01:06:01.274Z,74.88
2022-09-18T01:11:10.015Z,76.65
2022-09-18T01:16:11.233Z,77.77
2022-09-18T01:21:13.616Z,78.56
2022-09-18T01:26:25.470Z,78.33
2022-09-18T01:31:30.259Z,70.66
2022-09-18T01:36:28.260Z,66.82
2022-09-18T01:41:25.292Z,65.96
2022-09-18T01:46:25.526Z,66.09
2022-09-18T01:51:24.112Z,67.54
2022-09-18T01:56:23.683Z,67.95
2022-09-18T02:01:22.209Z,68.20
2022-09-18T02:06:22.601Z,67.85
2022-09-18T02:11:19.534Z,68.21
2022-09-18T02:16:19.750Z,68.07
2022-09-18T02:21:18.434Z,67.64
2022-09-18T02:26:14.270Z,67.99
2022-09-18T02:31:07.863Z,67.57
2022-09-18T02:36:21.505Z,67.24
2022-09-18T02:41:24.708Z,67.31
2022-09-18T02:46:27.244Z,67.79
2022-09-18T02:51:32.133Z,67.55
2022-09-18T02:56:34.585Z,66.80
2022-09-18T03:01:31.716Z,66.66
2022-09-18T03:06:26.837Z,66.79
2022-09-18T03:11:20.453Z,66.65
2022-09-18T03:16:13.826Z,66.45
2022-09-18T03:21:09.476Z,66.01
2022-09-18T03:26:04.274Z,64.99
2022-09-18T03:31:00.084Z,65.20
2022-09-18T03:35:54.196Z,65.09
2022-09-18T03:40:48.197Z,64.69
2022-09-18T03:45:44.511Z,63.42
2022-09-18T03:50:39.607Z,63.17
2022-09-18T03:55:34.884Z,63.50
2022-09-18T04:00:52.284Z,62.31
2022-09-18T04:05:57.070Z,62.82
2022-09-18T04:10:50.235Z,62.98
2022-09-18T04:15:45.335Z,63.37
2022-09-18T04:20:40.108Z,64.39
2022-09-18T04:25:33.510Z,66.43
2022-09-18T04:30:27.768Z,67.37
2022-09-18T04:35:21.335Z,67.16
2022-09-18T04:40:17.638Z,67.79
2022-09-18T04:45:12.883Z,67.48
2022-09-18T04:50:08.940Z,67.39
2022-09-18T04:55:02.511Z,67.17
2022-09-18T05:00:00.277Z,66.63
2022-09-18T05:04:54.216Z,66.48
2022-09-18T05:09:54.261Z,65.33
2022-09-18T05:14:50.111Z,65.49
2022-09-18T05:19:51.040Z,63.48
2022-09-18T05:24:50.140Z,62.00
2022-09-18T05:29:46.386Z,61.04
2022-09-18T05:34:44.247Z,59.60
2022-09-18T05:39:39.454Z,58.56
2022-09-18T05:44:33.503Z,58.13
2022-09-18T05:49:30.412Z,56.97
2022-09-18T05:54:29.445Z,56.75
2022-09-18T05:59:25.534Z,55.96
2022-09-18T06:04:21.473Z,54.90
2022-09-18T06:09:25.936Z,55.48
2022-09-18T06:14:19.114Z,54.73
2022-09-18T06:19:17.788Z,54.63
2022-09-18T06:24:13.907Z,54.33
2022-09-18T06:29:17.369Z,53.75
2022-09-18T06:34:30.602Z,53.77
2022-09-18T06:39:28.855Z,53.66
2022-09-18T06:44:26.417Z,53.49
2022-09-18T06:49:28.398Z,52.66
2022-09-18T06:54:24.166Z,52.80
2022-09-18T06:59:17.627Z,52.66
2022-09-18T07:04:11.669Z,52.59
2022-09-18T07:09:09.635Z,52.78
2022-09-18T07:14:24.288Z,51.57
2022-09-18T07:19:22.983Z,51.33
2022-09-18T07:24:21.816Z,51.06
2022-09-18T07:29:15.272Z,50.60
2022-09-18T07:34:14.111Z,49.39
2022-09-18T07:39:10.846Z,49.40
2022-09-18T07:44:27.794Z,48.80
2022-09-18T07:49:22.508Z,48.14
2022-09-18T07:54:18.287Z,47.82
2022-09-18T07:59:20.041Z,48.24
2022-09-18T08:04:18.823Z,47.19
2022-09-18T08:09:34.238Z,46.57
2022-09-18T08:14:43.664Z,46.37
2022-09-18T08:19:42.603Z,45.71
2022-09-18T08:24:48.734Z,45.25
2022-09-18T08:29:42.444Z,44.08
2022-09-18T08:34:37.212Z,43.73
2022-09-18T08:39:30.657Z,42.18
2022-09-18T08:44:48.793Z,39.58
2022-09-18T08:49:50.527Z,39.66
2022-09-18T08:54:52.840Z,39.31
2022-09-18T09:00:17.854Z,40.12
2022-09-18T09:05:19.391Z,40.90
2022-09-18T09:10:50.784Z,41.60
2022-09-18T09:15:54.120Z,41.52
2022-09-18T09:20:53.382Z,40.22
2022-09-18T09:26:05.391Z,40.30
2022-09-18T09:31:35.577Z,40.26
2022-09-18T09:37:15.341Z,40.77
2022-09-18T09:42:18.373Z,40.10
2022-09-18T09:47:36.914Z,39.43
2022-09-18T09:52:33.973Z,39.10
2022-09-18T09:57:43.614Z,39.20
2022-09-18T10:02:52.524Z,38.53
2022-09-18T10:08:01.736Z,38.79
2022-09-18T10:13:12.872Z,38.77
2022-09-18T10:18:16.445Z,38.35
2022-09-18T10:23:25.752Z,38.66
2022-09-18T10:28:30.495Z,37.63
2022-09-18T10:33:43.117Z,37.45
2022-09-18T10:38:43.159Z,36.58
2022-09-18T10:43:56.235Z,36.14
2022-09-18T10:48:54.171Z,37.35
2022-09-18T10:54:08.938Z,36.54
2022-09-18T10:59:38.178Z,36.61
2022-09-18T11:04:33.678Z,35.35
2022-09-18T11:09:39.697Z,34.80
2022-09-18T11:14:42.251Z,32.61
2022-09-18T11:19:53.095Z,31.82
2022-09-18T11:25:24.361Z,29.72
2022-09-18T11:31:13.802Z,27.63
2022-09-18T11:36:48.889Z,26.84
2022-09-18T11:41:58.897Z,25.92
2022-09-18T11:47:37.943Z,25.63
2022-09-18T11:53:38.271Z,24.33
2022-09-18T11:58:46.182Z,24.35
2022-09-18T12:03:49.655Z,24.90
2022-09-18T12:08:52.345Z,24.27
2022-09-18T12:14:03.398Z,23.72
2022-09-18T12:19:10.004Z,23.17
2022-09-18T12:24:14.818Z,23.14
2022-09-18T12:29:31.397Z,22.96
2022-09-18T12:34:32.301Z,23.22
2022-09-18T12:39:55.342Z,22.45
2022-09-18T12:45:16.210Z,23.01
2022-09-18T12:50:33.241Z,22.92
2022-09-18T12:55:42.277Z,22.56
2022-09-18T13:00:39.392Z,22.40
2022-09-18T13:06:11.536Z,21.61
2022-09-18T13:11:20.066Z,21.72
2022-09-18T13:16:23.524Z,20.90
2022-09-18T13:21:26.981Z,20.82
2022-09-18T13:26:24.525Z,20.97
2022-09-18T13:31:31.446Z,20.59
2022-09-18T13:36:27.285Z,19.70
2022-09-18T13:41:24.883Z,20.84
2022-09-18T13:46:35.037Z,19.96
2022-09-18T13:51:32.275Z,20.65
2022-09-18T13:57:10.980Z,20.54
2022-09-18T14:02:25.197Z,20.11
2022-09-18T14:07:56.407Z,20.34
2022-09-18T14:13:30.881Z,19.91
2022-09-18T14:18:28.353Z,20.10
2022-09-18T14:24:14.309Z,20.34
2022-09-18T14:29:14.991Z,20.95
2022-09-18T14:34:15.410Z,21.28
2022-09-18T14:39:26.680Z,21.78
2022-09-18T14:44:25.057Z,21.88
2022-09-18T14:49:27.191Z,21.62
2022-09-18T14:54:24.398Z,21.85
2022-09-18T14:59:22.133Z,22.91
2022-09-18T15:04:18.836Z,24.12
2022-09-18T15:09:14.503Z,25.19
2022-09-18T15:14:22.496Z,26.76
2022-09-18T15:19:20.739Z,27.61
2022-09-18T15:24:16.952Z,28.62
2022-09-18T15:29:21.408Z,29.32
2022-09-18T15:34:24.802Z,29.92
2022-09-18T15:39:32.694Z,30.45
2022-09-18T15:45:15.678Z,30.81
2022-09-18T15:50:40.035Z,30.50
2022-09-18T15:55:36.025Z,31.22
2022-09-18T16:00:32.339Z,31.03
2022-09-18T16:05:29.939Z,30.72
2022-09-18T16:10:49.037Z,30.81
2022-09-18T16:15:54.857Z,31.36
2022-09-18T16:21:08.986Z,31.49
2022-09-18T16:26:13.195Z,31.49
2022-09-18T16:31:08.261Z,31.53
2022-09-18T16:36:03.845Z,31.79
2022-09-18T16:40:57.223Z,32.27
2022-09-18T16:45:52.635Z,32.08
2022-09-18T16:50:47.652Z,32.30
2022-09-18T16:55:45.089Z,32.56
2022-09-18T17:00:38.770Z,33.15
2022-09-18T17:05:37.547Z,33.27
2022-09-18T17:10:36.333Z,33.04
2022-09-18T17:15:31.565Z,33.08
2022-09-18T17:20:26.725Z,33.46
2022-09-18T17:25:25.659Z,33.69
2022-09-18T17:30:19.152Z,34.26
2022-09-18T17:35:13.539Z,34.03
2022-09-18T17:40:07.885Z,34.98
2022-09-18T17:45:03.034Z,35.32
2022-09-18T17:49:56.341Z,35.36
2022-09-18T17:54:50.768Z,36.05
2022-09-18T17:59:48.152Z,36.14
2022-09-18T18:04:42.895Z,36.51
2022-09-18T18:09:37.561Z,36.54
2022-09-18T18:14:32.989Z,36.94
2022-09-18T18:19:31.499Z,36.82
2022-09-18T18:24:26.244Z,36.90
2022-09-18T18:29:25.105Z,37.02
2022-09-18T18:34:24.368Z,37.43
2022-09-18T18:39:20.172Z,37.67
2022-09-18T18:44:18.243Z,38.01
2022-09-18T18:49:15.119Z,38.00
2022-09-18T18:54:08.434Z,38.29
2022-09-18T18:59:06.059Z,38.66
2022-09-18T19:04:02.551Z,38.92
2022-09-18T19:08:58.041Z,39.59
2022-09-18T19:13:52.731Z,39.55
2022-09-18T19:18:56.218Z,39.73
2022-09-18T19:24:00.035Z,39.60
2022-09-18T19:28:57.299Z,40.32
2022-09-18T19:33:52.742Z,40.88
2022-09-18T19:38:46.252Z,40.97
2022-09-18T19:43:41.517Z,41.28
2022-09-18T19:48:35.226Z,41.20
2022-09-18T19:53:28.701Z,41.67
2022-09-18T19:58:27.417Z,41.87
2022-09-18T20:03:23.478Z,42.33
2022-09-18T20:08:16.610Z,42.98
2022-09-18T20:13:13.307Z,43.35
2022-09-18T20:18:07.966Z,43.99
2022-09-18T20:23:02.532Z,43.89
2022-09-18T20:28:00.767Z,44.03
2022-09-18T20:32:55.592Z,44.13
2022-09-18T20:37:49.110Z,44.34
2022-09-18T20:42:44.997Z,44.24
2022-09-18T20:47:43.537Z,44.64
2022-09-18T20:52:43.169Z,44.70
2022-09-18T20:57:43.012Z,44.93
2022-09-18T21:02:41.201Z,45.33
2022-09-18T21:07:36.839Z,45.76
2022-09-18T21:12:38.327Z,46.01
2022-09-18T21:17:32.392Z,45.93
2022-09-18T21:22:31.895Z,46.63
2022-09-18T21:27:25.239Z,46.22
2022-09-18T21:32:19.416Z,46.34
2022-09-18T21:37:14.631Z,46.64
2022-09-18T21:42:09.980Z,46.93
2022-09-18T21:47:07.671Z,47.03
2022-09-18T21:52:04.665Z,47.06
2022-09-18T21:56:58.661Z,47.59
2022-09-18T22:01:55.382Z,47.42
2022-09-18T22:06:48.714Z,47.77
2022-09-18T22:11:43.399Z,48.05
2022-09-18T22:16:37.234Z,48.25
2022-09-18T22:21:34.322Z,48.91
2022-09-18T22:26:28.686Z,49.00
2022-09-18T22:31:25.826Z,49.30
2022-09-18T22:36:19.016Z,49.57
2022-09-18T22:41:16.691Z,50.37
2022-09-18T22:46:11.955Z,50.85
2022-09-18T22:51:09.817Z,51.22
2022-09-18T22:56:04.781Z,50.87
2022-09-18T23:01:07.357Z,50.96
2022-09-18T23:06:01.691Z,51.09
2022-09-18T23:10:57.214Z,51.26
2022-09-18T23:15:54.976Z,51.56
2022-09-18T23:20:51.684Z,51.81
2022-09-18T23:25:44.793Z,52.12
2022-09-18T23:30:38.623Z,52.37
2022-09-18T23:35:33.721Z,52.66
2022-09-18T23:40:28.389Z,52.84
2022-09-18T23:45:22.078Z,53.24
2022-09-18T23:50:15.391Z,53.51
2022-09-18T23:55:08.775Z,53.65
